sensor_id;sensor_type;location;lat;lon;timestamp;temperature;humidity
74617;DHT22;63123;50.906;4.198;2024-01-30T00:01:17;17.00;54.40
74617;DHT22;63123;50.906;4.198;2024-01-30T00:03:43;17.00;54.40
74617;DHT22;63123;50.906;4.198;2024-01-30T00:06:09;17.00;54.40
74617;DHT22;63123;50.906;4.198;2024-01-30T00:08:34;17.00;54.40
74617;DHT22;63123;50.906;4.198;2024-01-30T00:11:00;17.00;54.40
74617;DHT22;63123;50.906;4.198;2024-01-30T00:13:26;17.00;54.30
74617;DHT22;63123;50.906;4.198;2024-01-30T00:15:52;16.90;54.30
74617;DHT22;63123;50.906;4.198;2024-01-30T00:18:17;17.00;55.00
74617;DHT22;63123;50.906;4.198;2024-01-30T00:20:44;17.00;54.40
74617;DHT22;63123;50.906;4.198;2024-01-30T00:23:09;17.00;54.40
74617;DHT22;63123;50.906;4.198;2024-01-30T00:25:35;17.00;54.40
74617;DHT22;63123;50.906;4.198;2024-01-30T00:28:00;17.00;54.40
74617;DHT22;63123;50.906;4.198;2024-01-30T00:30:26;17.00;54.40
74617;DHT22;63123;50.906;4.198;2024-01-30T00:32:52;17.00;54.40
74617;DHT22;63123;50.906;4.198;2024-01-30T00:35:17;17.00;54.40
74617;DHT22;63123;50.906;4.198;2024-01-30T00:37:43;17.00;54.40
74617;DHT22;63123;50.906;4.198;2024-01-30T00:40:08;17.00;54.40
74617;DHT22;63123;50.906;4.198;2024-01-30T00:42:35;17.00;54.40
74617;DHT22;63123;50.906;4.198;2024-01-30T00:45:01;17.00;54.40
74617;DHT22;63123;50.906;4.198;2024-01-30T00:47:26;17.00;54.40
74617;DHT22;63123;50.906;4.198;2024-01-30T00:49:52;17.00;54.40
74617;DHT22;63123;50.906;4.198;2024-01-30T00:52:17;17.00;54.40
74617;DHT22;63123;50.906;4.198;2024-01-30T00:54:43;17.00;54.40
74617;DHT22;63123;50.906;4.198;2024-01-30T00:57:09;17.00;54.40
74617;DHT22;63123;50.906;4.198;2024-01-30T00:59:34;17.00;54.50
74617;DHT22;63123;50.906;4.198;2024-01-30T01:02:00;17.00;54.50
74617;DHT22;63123;50.906;4.198;2024-01-30T01:04:25;17.00;54.50
74617;DHT22;63123;50.906;4.198;2024-01-30T01:06:52;17.00;54.50
74617;DHT22;63123;50.906;4.198;2024-01-30T01:09:17;17.00;54.50
74617;DHT22;63123;50.906;4.198;2024-01-30T01:11:43;17.00;54.50
74617;DHT22;63123;50.906;4.198;2024-01-30T01:14:08;17.00;54.50
74617;DHT22;63123;50.906;4.198;2024-01-30T01:16:34;17.00;54.50
74617;DHT22;63123;50.906;4.198;2024-01-30T01:18:59;17.00;54.50
74617;DHT22;63123;50.906;4.198;2024-01-30T01:21:25;17.00;54.50
74617;DHT22;63123;50.906;4.198;2024-01-30T01:23:51;17.00;54.50
74617;DHT22;63123;50.906;4.198;2024-01-30T01:26:16;17.00;54.50
74617;DHT22;63123;50.906;4.198;2024-01-30T01:28:42;17.00;54.50
74617;DHT22;63123;50.906;4.198;2024-01-30T01:31:07;17.00;54.50
74617;DHT22;63123;50.906;4.198;2024-01-30T01:33:33;16.90;54.50
74617;DHT22;63123;50.906;4.198;2024-01-30T01:35:59;17.00;54.60
74617;DHT22;63123;50.906;4.198;2024-01-30T01:38:24;17.00;54.50
74617;DHT22;63123;50.906;4.198;2024-01-30T01:40:50;17.00;54.50
74617;DHT22;63123;50.906;4.198;2024-01-30T01:43:16;17.00;54.50
74617;DHT22;63123;50.906;4.198;2024-01-30T01:45:42;17.00;54.50
74617;DHT22;63123;50.906;4.198;2024-01-30T01:48:07;17.00;54.60
74617;DHT22;63123;50.906;4.198;2024-01-30T01:50:34;17.00;54.50
74617;DHT22;63123;50.906;4.198;2024-01-30T01:53:00;17.00;54.50
74617;DHT22;63123;50.906;4.198;2024-01-30T01:55:26;17.00;54.60
74617;DHT22;63123;50.906;4.198;2024-01-30T01:57:54;17.00;54.50
74617;DHT22;63123;50.906;4.198;2024-01-30T02:00:19;17.00;54.50
74617;DHT22;63123;50.906;4.198;2024-01-30T02:02:45;17.00;54.60
74617;DHT22;63123;50.906;4.198;2024-01-30T02:07:58;17.00;54.60
74617;DHT22;63123;50.906;4.198;2024-01-30T02:10:23;17.00;54.60
74617;DHT22;63123;50.906;4.198;2024-01-30T02:12:49;17.00;54.60
74617;DHT22;63123;50.906;4.198;2024-01-30T02:15:15;17.00;54.60
74617;DHT22;63123;50.906;4.198;2024-01-30T02:17:40;17.00;54.60
74617;DHT22;63123;50.906;4.198;2024-01-30T02:20:06;17.00;54.60
74617;DHT22;63123;50.906;4.198;2024-01-30T02:22:32;17.00;54.60
74617;DHT22;63123;50.906;4.198;2024-01-30T02:24:59;17.00;54.60
74617;DHT22;63123;50.906;4.198;2024-01-30T02:27:24;17.00;54.60
74617;DHT22;63123;50.906;4.198;2024-01-30T02:29:50;17.00;54.60
74617;DHT22;63123;50.906;4.198;2024-01-30T02:32:15;17.00;54.60
74617;DHT22;63123;50.906;4.198;2024-01-30T02:34:41;17.00;54.60
74617;DHT22;63123;50.906;4.198;2024-01-30T02:37:07;16.90;54.60
74617;DHT22;63123;50.906;4.198;2024-01-30T02:39:32;17.00;54.70
74617;DHT22;63123;50.906;4.198;2024-01-30T02:41:57;17.00;54.70
74617;DHT22;63123;50.906;4.198;2024-01-30T02:44:23;17.00;54.70
74617;DHT22;63123;50.906;4.198;2024-01-30T02:46:49;17.00;54.70
74617;DHT22;63123;50.906;4.198;2024-01-30T02:49:14;17.00;54.70
74617;DHT22;63123;50.906;4.198;2024-01-30T02:51:39;16.90;54.70
74617;DHT22;63123;50.906;4.198;2024-01-30T02:54:05;17.00;54.70
74617;DHT22;63123;50.906;4.198;2024-01-30T02:56:30;17.00;54.70
74617;DHT22;63123;50.906;4.198;2024-01-30T02:58:56;17.00;54.70
74617;DHT22;63123;50.906;4.198;2024-01-30T03:01:21;17.00;54.70
74617;DHT22;63123;50.906;4.198;2024-01-30T03:03:48;17.00;54.70
74617;DHT22;63123;50.906;4.198;2024-01-30T03:06:14;17.00;54.70
74617;DHT22;63123;50.906;4.198;2024-01-30T03:08:42;17.00;54.80
74617;DHT22;63123;50.906;4.198;2024-01-30T03:11:08;16.90;54.70
74617;DHT22;63123;50.906;4.198;2024-01-30T03:13:33;17.00;54.80
74617;DHT22;63123;50.906;4.198;2024-01-30T03:15:59;17.00;54.80
74617;DHT22;63123;50.906;4.198;2024-01-30T03:18:24;17.00;54.80
74617;DHT22;63123;50.906;4.198;2024-01-30T03:20:50;17.00;54.80
74617;DHT22;63123;50.906;4.198;2024-01-30T03:23:15;17.00;54.80
74617;DHT22;63123;50.906;4.198;2024-01-30T03:25:41;17.00;54.80
74617;DHT22;63123;50.906;4.198;2024-01-30T03:28:06;17.00;55.40
74617;DHT22;63123;50.906;4.198;2024-01-30T03:30:32;17.00;54.80
74617;DHT22;63123;50.906;4.198;2024-01-30T03:32:57;17.00;54.80
74617;DHT22;63123;50.906;4.198;2024-01-30T03:35:23;17.00;54.80
74617;DHT22;63123;50.906;4.198;2024-01-30T03:37:48;17.00;54.80
74617;DHT22;63123;50.906;4.198;2024-01-30T03:40:14;17.00;54.80
74617;DHT22;63123;50.906;4.198;2024-01-30T03:42:40;17.00;54.80
74617;DHT22;63123;50.906;4.198;2024-01-30T03:45:06;16.90;54.80
74617;DHT22;63123;50.906;4.198;2024-01-30T03:47:31;17.00;54.80
74617;DHT22;63123;50.906;4.198;2024-01-30T03:49:57;17.00;54.80
74617;DHT22;63123;50.906;4.198;2024-01-30T03:52:22;17.00;54.80
74617;DHT22;63123;50.906;4.198;2024-01-30T03:54:48;17.00;54.80
74617;DHT22;63123;50.906;4.198;2024-01-30T03:57:13;17.00;54.90
74617;DHT22;63123;50.906;4.198;2024-01-30T03:59:41;17.00;54.90
74617;DHT22;63123;50.906;4.198;2024-01-30T04:02:06;17.00;54.80
74617;DHT22;63123;50.906;4.198;2024-01-30T04:04:32;16.90;54.80
74617;DHT22;63123;50.906;4.198;2024-01-30T04:06:57;17.00;54.90
74617;DHT22;63123;50.906;4.198;2024-01-30T04:09:23;17.00;54.80
74617;DHT22;63123;50.906;4.198;2024-01-30T04:11:49;17.00;54.80
74617;DHT22;63123;50.906;4.198;2024-01-30T04:14:14;17.00;54.90
74617;DHT22;63123;50.906;4.198;2024-01-30T04:16:40;17.00;54.80
74617;DHT22;63123;50.906;4.198;2024-01-30T04:19:05;17.00;54.80
74617;DHT22;63123;50.906;4.198;2024-01-30T04:21:31;17.00;54.90
74617;DHT22;63123;50.906;4.198;2024-01-30T04:23:56;17.00;54.80
74617;DHT22;63123;50.906;4.198;2024-01-30T04:26:22;17.00;54.80
74617;DHT22;63123;50.906;4.198;2024-01-30T04:28:47;16.90;54.80
74617;DHT22;63123;50.906;4.198;2024-01-30T04:31:13;17.00;54.80
74617;DHT22;63123;50.906;4.198;2024-01-30T04:33:38;16.90;54.80
74617;DHT22;63123;50.906;4.198;2024-01-30T04:36:04;16.90;54.80
74617;DHT22;63123;50.906;4.198;2024-01-30T04:38:30;17.00;54.80
74617;DHT22;63123;50.906;4.198;2024-01-30T04:40:55;17.00;54.80
74617;DHT22;63123;50.906;4.198;2024-01-30T04:43:21;17.00;54.80
74617;DHT22;63123;50.906;4.198;2024-01-30T04:45:46;17.00;54.80
74617;DHT22;63123;50.906;4.198;2024-01-30T04:48:12;17.00;55.00
74617;DHT22;63123;50.906;4.198;2024-01-30T04:50:37;17.00;54.80
74617;DHT22;63123;50.906;4.198;2024-01-30T04:53:03;17.00;54.80
74617;DHT22;63123;50.906;4.198;2024-01-30T04:55:29;17.00;54.80
74617;DHT22;63123;50.906;4.198;2024-01-30T04:57:54;17.00;54.80
74617;DHT22;63123;50.906;4.198;2024-01-30T05:00:19;17.00;54.80
74617;DHT22;63123;50.906;4.198;2024-01-30T05:02:45;16.90;54.80
74617;DHT22;63123;50.906;4.198;2024-01-30T05:05:10;17.00;54.90
74617;DHT22;63123;50.906;4.198;2024-01-30T05:07:36;17.00;54.80
74617;DHT22;63123;50.906;4.198;2024-01-30T05:10:02;17.00;54.80
74617;DHT22;63123;50.906;4.198;2024-01-30T05:12:28;17.00;54.80
74617;DHT22;63123;50.906;4.198;2024-01-30T05:14:54;17.00;54.80
74617;DHT22;63123;50.906;4.198;2024-01-30T05:17:19;17.00;54.80
74617;DHT22;63123;50.906;4.198;2024-01-30T05:19:45;17.00;54.80
74617;DHT22;63123;50.906;4.198;2024-01-30T05:22:10;17.00;54.80
74617;DHT22;63123;50.906;4.198;2024-01-30T05:24:36;17.00;54.80
74617;DHT22;63123;50.906;4.198;2024-01-30T05:27:02;17.00;54.80
74617;DHT22;63123;50.906;4.198;2024-01-30T05:29:27;17.00;54.80
74617;DHT22;63123;50.906;4.198;2024-01-30T05:31:53;17.00;54.80
74617;DHT22;63123;50.906;4.198;2024-01-30T05:34:18;17.00;54.80
74617;DHT22;63123;50.906;4.198;2024-01-30T05:36:44;17.00;54.90
74617;DHT22;63123;50.906;4.198;2024-01-30T05:39:09;17.00;54.90
74617;DHT22;63123;50.906;4.198;2024-01-30T05:41:35;17.00;54.90
74617;DHT22;63123;50.906;4.198;2024-01-30T05:44:01;17.00;54.80
74617;DHT22;63123;50.906;4.198;2024-01-30T05:46:27;17.00;54.80
74617;DHT22;63123;50.906;4.198;2024-01-30T05:48:52;17.00;54.90
74617;DHT22;63123;50.906;4.198;2024-01-30T05:51:18;17.00;54.80
74617;DHT22;63123;50.906;4.198;2024-01-30T05:53:43;17.00;54.80
74617;DHT22;63123;50.906;4.198;2024-01-30T05:56:09;17.00;54.90
74617;DHT22;63123;50.906;4.198;2024-01-30T05:58:34;17.00;54.90
74617;DHT22;63123;50.906;4.198;2024-01-30T06:01:00;17.00;54.90
74617;DHT22;63123;50.906;4.198;2024-01-30T06:03:25;17.00;54.90
74617;DHT22;63123;50.906;4.198;2024-01-30T06:05:51;17.00;54.90
74617;DHT22;63123;50.906;4.198;2024-01-30T06:08:17;17.00;54.90
74617;DHT22;63123;50.906;4.198;2024-01-30T06:10:42;17.00;54.90
74617;DHT22;63123;50.906;4.198;2024-01-30T06:13:08;16.90;54.90
74617;DHT22;63123;50.906;4.198;2024-01-30T06:15:33;17.00;54.90
74617;DHT22;63123;50.906;4.198;2024-01-30T06:17:59;17.00;54.90
74617;DHT22;63123;50.906;4.198;2024-01-30T06:20:25;17.00;54.90
74617;DHT22;63123;50.906;4.198;2024-01-30T06:22:50;17.00;54.90
74617;DHT22;63123;50.906;4.198;2024-01-30T06:25:16;17.00;54.90
74617;DHT22;63123;50.906;4.198;2024-01-30T06:27:42;17.00;54.90
74617;DHT22;63123;50.906;4.198;2024-01-30T06:30:07;17.00;54.90
74617;DHT22;63123;50.906;4.198;2024-01-30T06:32:33;17.00;55.00
74617;DHT22;63123;50.906;4.198;2024-01-30T06:35:02;17.00;54.90
74617;DHT22;63123;50.906;4.198;2024-01-30T06:37:28;17.00;55.00
74617;DHT22;63123;50.906;4.198;2024-01-30T06:39:53;17.00;55.00
74617;DHT22;63123;50.906;4.198;2024-01-30T06:42:19;17.00;55.00
74617;DHT22;63123;50.906;4.198;2024-01-30T06:44:45;17.00;55.00
74617;DHT22;63123;50.906;4.198;2024-01-30T06:47:10;17.00;55.00
74617;DHT22;63123;50.906;4.198;2024-01-30T06:49:36;17.00;55.00
74617;DHT22;63123;50.906;4.198;2024-01-30T06:52:06;17.00;55.00
74617;DHT22;63123;50.906;4.198;2024-01-30T06:54:32;17.00;55.00
74617;DHT22;63123;50.906;4.198;2024-01-30T06:56:58;17.00;55.10
74617;DHT22;63123;50.906;4.198;2024-01-30T06:59:24;17.00;55.10
74617;DHT22;63123;50.906;4.198;2024-01-30T07:01:49;17.00;55.10
74617;DHT22;63123;50.906;4.198;2024-01-30T07:04:15;17.00;55.10
74617;DHT22;63123;50.906;4.198;2024-01-30T07:06:41;17.00;55.10
74617;DHT22;63123;50.906;4.198;2024-01-30T07:09:06;17.00;55.10
74617;DHT22;63123;50.906;4.198;2024-01-30T07:11:32;17.00;55.10
74617;DHT22;63123;50.906;4.198;2024-01-30T07:13:57;17.00;55.10
74617;DHT22;63123;50.906;4.198;2024-01-30T07:16:23;17.00;55.10
74617;DHT22;63123;50.906;4.198;2024-01-30T07:18:49;17.00;55.10
74617;DHT22;63123;50.906;4.198;2024-01-30T07:21:15;16.90;55.10
74617;DHT22;63123;50.906;4.198;2024-01-30T07:23:40;17.00;55.20
74617;DHT22;63123;50.906;4.198;2024-01-30T07:26:07;17.00;55.20
74617;DHT22;63123;50.906;4.198;2024-01-30T07:28:34;17.00;55.20
74617;DHT22;63123;50.906;4.198;2024-01-30T07:31:00;17.00;55.20
74617;DHT22;63123;50.906;4.198;2024-01-30T07:33:25;17.00;55.20
74617;DHT22;63123;50.906;4.198;2024-01-30T07:35:54;17.00;55.20
74617;DHT22;63123;50.906;4.198;2024-01-30T07:38:19;17.00;55.30
74617;DHT22;63123;50.906;4.198;2024-01-30T07:40:45;17.00;55.30
74617;DHT22;63123;50.906;4.198;2024-01-30T07:43:10;17.00;55.30
74617;DHT22;63123;50.906;4.198;2024-01-30T07:45:36;17.00;55.30
74617;DHT22;63123;50.906;4.198;2024-01-30T07:48:03;17.00;55.30
74617;DHT22;63123;50.906;4.198;2024-01-30T07:50:28;17.00;55.30
74617;DHT22;63123;50.906;4.198;2024-01-30T07:52:55;17.00;55.30
74617;DHT22;63123;50.906;4.198;2024-01-30T07:55:22;17.00;55.30
74617;DHT22;63123;50.906;4.198;2024-01-30T07:57:51;17.00;55.30
74617;DHT22;63123;50.906;4.198;2024-01-30T08:00:17;17.00;55.30
74617;DHT22;63123;50.906;4.198;2024-01-30T08:02:45;17.00;55.30
74617;DHT22;63123;50.906;4.198;2024-01-30T08:05:10;17.00;55.30
74617;DHT22;63123;50.906;4.198;2024-01-30T08:07:36;17.00;55.30
74617;DHT22;63123;50.906;4.198;2024-01-30T08:10:02;17.00;55.30
74617;DHT22;63123;50.906;4.198;2024-01-30T08:12:27;17.00;55.30
74617;DHT22;63123;50.906;4.198;2024-01-30T08:14:53;17.00;55.40
74617;DHT22;63123;50.906;4.198;2024-01-30T08:17:18;17.00;55.40
74617;DHT22;63123;50.906;4.198;2024-01-30T08:19:44;16.90;55.30
74617;DHT22;63123;50.906;4.198;2024-01-30T08:22:10;17.00;55.40
74617;DHT22;63123;50.906;4.198;2024-01-30T08:24:35;17.00;55.40
74617;DHT22;63123;50.906;4.198;2024-01-30T08:27:01;17.00;55.40
74617;DHT22;63123;50.906;4.198;2024-01-30T08:29:28;17.00;55.40
74617;DHT22;63123;50.906;4.198;2024-01-30T08:31:53;17.00;55.40
74617;DHT22;63123;50.906;4.198;2024-01-30T08:34:21;17.00;55.50
74617;DHT22;63123;50.906;4.198;2024-01-30T08:36:46;17.00;55.40
74617;DHT22;63123;50.906;4.198;2024-01-30T08:39:12;17.00;55.50
74617;DHT22;63123;50.906;4.198;2024-01-30T08:41:37;17.00;55.50
74617;DHT22;63123;50.906;4.198;2024-01-30T08:44:03;17.00;55.50
74617;DHT22;63123;50.906;4.198;2024-01-30T08:46:29;17.00;55.50
74617;DHT22;63123;50.906;4.198;2024-01-30T08:48:56;17.00;55.60
74617;DHT22;63123;50.906;4.198;2024-01-30T08:51:21;17.00;55.60
74617;DHT22;63123;50.906;4.198;2024-01-30T08:53:47;17.00;55.60
74617;DHT22;63123;50.906;4.198;2024-01-30T08:56:12;17.00;55.60
74617;DHT22;63123;50.906;4.198;2024-01-30T08:58:38;17.00;55.70
74617;DHT22;63123;50.906;4.198;2024-01-30T09:01:04;17.00;55.60
74617;DHT22;63123;50.906;4.198;2024-01-30T09:03:31;17.00;55.70
74617;DHT22;63123;50.906;4.198;2024-01-30T09:05:56;17.00;55.70
74617;DHT22;63123;50.906;4.198;2024-01-30T09:08:22;17.00;55.70
74617;DHT22;63123;50.906;4.198;2024-01-30T09:10:47;17.00;55.80
74617;DHT22;63123;50.906;4.198;2024-01-30T09:13:15;17.00;55.80
74617;DHT22;63123;50.906;4.198;2024-01-30T09:15:40;17.00;55.80
74617;DHT22;63123;50.906;4.198;2024-01-30T09:18:06;17.00;55.80
74617;DHT22;63123;50.906;4.198;2024-01-30T09:20:32;17.00;55.90
74617;DHT22;63123;50.906;4.198;2024-01-30T09:22:57;17.00;55.90
74617;DHT22;63123;50.906;4.198;2024-01-30T09:25:22;17.00;55.90
74617;DHT22;63123;50.906;4.198;2024-01-30T09:27:48;17.00;55.90
74617;DHT22;63123;50.906;4.198;2024-01-30T09:30:14;17.00;55.90
74617;DHT22;63123;50.906;4.198;2024-01-30T09:32:40;16.90;55.90
74617;DHT22;63123;50.906;4.198;2024-01-30T09:35:06;17.00;55.90
74617;DHT22;63123;50.906;4.198;2024-01-30T09:37:31;17.00;55.90
74617;DHT22;63123;50.906;4.198;2024-01-30T09:39:57;17.00;56.00
74617;DHT22;63123;50.906;4.198;2024-01-30T09:44:57;17.00;56.00
74617;DHT22;63123;50.906;4.198;2024-01-30T09:47:22;17.00;56.00
74617;DHT22;63123;50.906;4.198;2024-01-30T09:49:48;17.00;56.10
74617;DHT22;63123;50.906;4.198;2024-01-30T09:52:14;17.00;56.10
74617;DHT22;63123;50.906;4.198;2024-01-30T09:54:40;17.00;56.20
74617;DHT22;63123;50.906;4.198;2024-01-30T09:57:06;17.00;56.30
74617;DHT22;63123;50.906;4.198;2024-01-30T09:59:33;17.00;56.30
74617;DHT22;63123;50.906;4.198;2024-01-30T10:01:58;17.00;56.30
74617;DHT22;63123;50.906;4.198;2024-01-30T10:04:24;17.00;56.40
74617;DHT22;63123;50.906;4.198;2024-01-30T10:06:50;17.00;56.40
74617;DHT22;63123;50.906;4.198;2024-01-30T10:09:16;17.00;56.40
74617;DHT22;63123;50.906;4.198;2024-01-30T10:11:41;17.00;56.40
74617;DHT22;63123;50.906;4.198;2024-01-30T10:14:07;17.00;56.40
74617;DHT22;63123;50.906;4.198;2024-01-30T10:16:34;17.00;56.40
74617;DHT22;63123;50.906;4.198;2024-01-30T10:18:59;17.00;56.50
74617;DHT22;63123;50.906;4.198;2024-01-30T10:21:25;17.00;56.40
74617;DHT22;63123;50.906;4.198;2024-01-30T10:23:50;17.00;56.40
74617;DHT22;63123;50.906;4.198;2024-01-30T10:26:16;17.00;56.40
74617;DHT22;63123;50.906;4.198;2024-01-30T10:28:42;17.00;56.40
74617;DHT22;63123;50.906;4.198;2024-01-30T10:31:08;17.00;56.40
74617;DHT22;63123;50.906;4.198;2024-01-30T10:33:34;17.00;56.30
74617;DHT22;63123;50.906;4.198;2024-01-30T10:36:03;17.00;56.20
74617;DHT22;63123;50.906;4.198;2024-01-30T10:38:30;17.00;56.10
74617;DHT22;63123;50.906;4.198;2024-01-30T10:40:59;17.00;56.10
74617;DHT22;63123;50.906;4.198;2024-01-30T10:43:32;17.00;56.00
74617;DHT22;63123;50.906;4.198;2024-01-30T10:46:01;17.00;55.90
74617;DHT22;63123;50.906;4.198;2024-01-30T10:48:30;17.00;55.80
74617;DHT22;63123;50.906;4.198;2024-01-30T10:50:57;17.00;55.80
74617;DHT22;63123;50.906;4.198;2024-01-30T10:53:24;17.00;55.70
74617;DHT22;63123;50.906;4.198;2024-01-30T10:55:51;17.00;55.70
74617;DHT22;63123;50.906;4.198;2024-01-30T10:58:17;17.00;55.60
74617;DHT22;63123;50.906;4.198;2024-01-30T11:00:43;17.00;56.10
74617;DHT22;63123;50.906;4.198;2024-01-30T11:03:08;17.00;55.50
74617;DHT22;63123;50.906;4.198;2024-01-30T11:05:34;17.00;55.50
74617;DHT22;63123;50.906;4.198;2024-01-30T11:08:10;17.00;55.50
74617;DHT22;63123;50.906;4.198;2024-01-30T11:10:44;17.00;55.30
74617;DHT22;63123;50.906;4.198;2024-01-30T11:13:10;17.00;55.30
74617;DHT22;63123;50.906;4.198;2024-01-30T11:15:37;17.00;55.30
74617;DHT22;63123;50.906;4.198;2024-01-30T11:18:03;17.00;55.20
74617;DHT22;63123;50.906;4.198;2024-01-30T11:20:31;17.00;55.10
74617;DHT22;63123;50.906;4.198;2024-01-30T11:22:58;17.00;55.10
74617;DHT22;63123;50.906;4.198;2024-01-30T11:25:23;17.00;54.90
74617;DHT22;63123;50.906;4.198;2024-01-30T11:27:50;17.00;55.00
74617;DHT22;63123;50.906;4.198;2024-01-30T11:30:26;17.00;54.90
74617;DHT22;63123;50.906;4.198;2024-01-30T11:33:01;17.00;54.80
74617;DHT22;63123;50.906;4.198;2024-01-30T11:35:33;17.00;54.80
74617;DHT22;63123;50.906;4.198;2024-01-30T11:37:59;17.00;54.70
74617;DHT22;63123;50.906;4.198;2024-01-30T11:40:26;17.00;54.70
74617;DHT22;63123;50.906;4.198;2024-01-30T11:42:52;17.00;54.60
74617;DHT22;63123;50.906;4.198;2024-01-30T11:45:18;17.00;54.60
74617;DHT22;63123;50.906;4.198;2024-01-30T11:47:44;17.00;54.50
74617;DHT22;63123;50.906;4.198;2024-01-30T11:50:09;17.00;54.50
74617;DHT22;63123;50.906;4.198;2024-01-30T11:52:36;17.00;54.40
74617;DHT22;63123;50.906;4.198;2024-01-30T11:55:02;17.00;54.30
74617;DHT22;63123;50.906;4.198;2024-01-30T11:57:28;17.00;54.80
74617;DHT22;63123;50.906;4.198;2024-01-30T11:59:53;17.00;54.70
74617;DHT22;63123;50.906;4.198;2024-01-30T12:02:19;17.10;54.80
74617;DHT22;63123;50.906;4.198;2024-01-30T12:04:44;17.10;55.00
74617;DHT22;63123;50.906;4.198;2024-01-30T12:07:10;17.10;55.30
74617;DHT22;63123;50.906;4.198;2024-01-30T12:09:36;17.00;55.30
74617;DHT22;63123;50.906;4.198;2024-01-30T12:12:02;17.10;55.50
74617;DHT22;63123;50.906;4.198;2024-01-30T12:14:27;17.10;55.60
74617;DHT22;63123;50.906;4.198;2024-01-30T12:16:53;17.10;55.50
74617;DHT22;63123;50.906;4.198;2024-01-30T12:19:24;17.10;55.50
74617;DHT22;63123;50.906;4.198;2024-01-30T12:21:53;17.10;55.50
74617;DHT22;63123;50.906;4.198;2024-01-30T12:24:19;17.10;55.30
74617;DHT22;63123;50.906;4.198;2024-01-30T12:26:45;17.10;55.20
74617;DHT22;63123;50.906;4.198;2024-01-30T12:29:10;17.10;54.90
74617;DHT22;63123;50.906;4.198;2024-01-30T12:31:36;17.10;54.90
74617;DHT22;63123;50.906;4.198;2024-01-30T12:34:02;17.10;54.80
74617;DHT22;63123;50.906;4.198;2024-01-30T12:36:28;17.10;54.80
74617;DHT22;63123;50.906;4.198;2024-01-30T12:38:54;17.10;54.70
74617;DHT22;63123;50.906;4.198;2024-01-30T12:41:19;17.10;54.40
74617;DHT22;63123;50.906;4.198;2024-01-30T12:43:45;17.20;54.70
74617;DHT22;63123;50.906;4.198;2024-01-30T12:46:11;17.10;54.40
74617;DHT22;63123;50.906;4.198;2024-01-30T12:48:36;17.20;54.50
74617;DHT22;63123;50.906;4.198;2024-01-30T12:51:02;17.20;54.30
74617;DHT22;63123;50.906;4.198;2024-01-30T12:53:27;17.20;54.10
74617;DHT22;63123;50.906;4.198;2024-01-30T12:55:53;17.20;53.70
74617;DHT22;63123;50.906;4.198;2024-01-30T12:58:19;17.10;54.10
74617;DHT22;63123;50.906;4.198;2024-01-30T13:00:45;17.20;54.50
74617;DHT22;63123;50.906;4.198;2024-01-30T13:03:11;17.20;53.80
74617;DHT22;63123;50.906;4.198;2024-01-30T13:05:36;17.10;54.00
74617;DHT22;63123;50.906;4.198;2024-01-30T13:08:02;17.20;53.90
74617;DHT22;63123;50.906;4.198;2024-01-30T13:10:27;17.20;54.00
74617;DHT22;63123;50.906;4.198;2024-01-30T13:12:53;17.10;54.30
74617;DHT22;63123;50.906;4.198;2024-01-30T13:15:18;17.10;54.70
74617;DHT22;63123;50.906;4.198;2024-01-30T13:17:44;17.20;55.00
74617;DHT22;63123;50.906;4.198;2024-01-30T13:20:12;17.20;54.70
74617;DHT22;63123;50.906;4.198;2024-01-30T13:22:42;17.20;54.70
74617;DHT22;63123;50.906;4.198;2024-01-30T13:25:08;17.10;54.90
74617;DHT22;63123;50.906;4.198;2024-01-30T13:27:33;17.20;54.90
74617;DHT22;63123;50.906;4.198;2024-01-30T13:29:59;17.20;55.10
74617;DHT22;63123;50.906;4.198;2024-01-30T13:32:25;17.10;54.80
74617;DHT22;63123;50.906;4.198;2024-01-30T13:34:50;17.20;54.60
74617;DHT22;63123;50.906;4.198;2024-01-30T13:37:16;17.10;54.60
74617;DHT22;63123;50.906;4.198;2024-01-30T13:39:41;17.20;54.50
74617;DHT22;63123;50.906;4.198;2024-01-30T13:42:07;17.20;54.60
74617;DHT22;63123;50.906;4.198;2024-01-30T13:44:33;17.20;54.60
74617;DHT22;63123;50.906;4.198;2024-01-30T13:46:59;17.20;54.40
74617;DHT22;63123;50.906;4.198;2024-01-30T13:49:25;17.20;54.80
74617;DHT22;63123;50.906;4.198;2024-01-30T13:51:50;17.20;55.30
74617;DHT22;63123;50.906;4.198;2024-01-30T13:54:16;17.20;55.60
74617;DHT22;63123;50.906;4.198;2024-01-30T13:56:41;17.20;55.80
74617;DHT22;63123;50.906;4.198;2024-01-30T13:59:07;17.20;55.80
74617;DHT22;63123;50.906;4.198;2024-01-30T14:01:32;17.20;55.50
74617;DHT22;63123;50.906;4.198;2024-01-30T14:03:58;17.20;55.60
74617;DHT22;63123;50.906;4.198;2024-01-30T14:06:24;17.20;55.90
74617;DHT22;63123;50.906;4.198;2024-01-30T14:08:49;17.20;55.30
74617;DHT22;63123;50.906;4.198;2024-01-30T14:11:15;17.20;55.00
74617;DHT22;63123;50.906;4.198;2024-01-30T14:13:40;17.20;55.10
74617;DHT22;63123;50.906;4.198;2024-01-30T14:16:06;17.20;55.10
74617;DHT22;63123;50.906;4.198;2024-01-30T14:18:31;17.20;55.00
74617;DHT22;63123;50.906;4.198;2024-01-30T14:20:57;17.20;54.80
74617;DHT22;63123;50.906;4.198;2024-01-30T14:23:23;17.20;54.60
74617;DHT22;63123;50.906;4.198;2024-01-30T14:25:49;17.20;55.10
74617;DHT22;63123;50.906;4.198;2024-01-30T14:28:14;17.20;54.50
74617;DHT22;63123;50.906;4.198;2024-01-30T14:30:40;17.20;54.40
74617;DHT22;63123;50.906;4.198;2024-01-30T14:33:05;17.10;54.20
74617;DHT22;63123;50.906;4.198;2024-01-30T14:35:32;17.20;54.20
74617;DHT22;63123;50.906;4.198;2024-01-30T14:37:59;17.20;54.10
74617;DHT22;63123;50.906;4.198;2024-01-30T14:40:24;17.20;54.10
74617;DHT22;63123;50.906;4.198;2024-01-30T14:42:50;17.20;54.00
74617;DHT22;63123;50.906;4.198;2024-01-30T14:45:15;17.20;54.00
74617;DHT22;63123;50.906;4.198;2024-01-30T14:47:41;17.20;53.90
74617;DHT22;63123;50.906;4.198;2024-01-30T14:50:07;17.20;53.80
74617;DHT22;63123;50.906;4.198;2024-01-30T14:52:33;17.20;53.80
74617;DHT22;63123;50.906;4.198;2024-01-30T14:54:58;17.10;53.60
74617;DHT22;63123;50.906;4.198;2024-01-30T14:57:24;17.10;53.60
74617;DHT22;63123;50.906;4.198;2024-01-30T14:59:50;17.10;53.40
74617;DHT22;63123;50.906;4.198;2024-01-30T15:02:15;17.10;53.30
74617;DHT22;63123;50.906;4.198;2024-01-30T15:04:41;17.10;53.40
74617;DHT22;63123;50.906;4.198;2024-01-30T15:07:07;17.10;53.50
74617;DHT22;63123;50.906;4.198;2024-01-30T15:09:32;17.10;53.30
74617;DHT22;63123;50.906;4.198;2024-01-30T15:11:58;17.10;53.40
74617;DHT22;63123;50.906;4.198;2024-01-30T15:14:23;17.10;53.50
74617;DHT22;63123;50.906;4.198;2024-01-30T15:16:49;17.10;53.50
74617;DHT22;63123;50.906;4.198;2024-01-30T15:19:15;17.10;53.70
74617;DHT22;63123;50.906;4.198;2024-01-30T15:21:40;17.10;53.90
74617;DHT22;63123;50.906;4.198;2024-01-30T15:24:06;17.10;54.20
74617;DHT22;63123;50.906;4.198;2024-01-30T15:26:31;17.10;54.40